Impacts METAR Board INFO
IDs:

KCLT - Charlotte/Douglas In, NC, US

Updated at: 0903 UTC 18 Dec 2017
Potential Impact None Slight Moderate High
Time17/21Z 17/22Z 17/23Z 18/00Z 18/01Z 18/02Z 18/03Z 18/04Z 18/05Z 18/06Z 18/07Z 18/08Z 18/09Z
VIS10 10 10 10 10 10 10 10 10 10 10 10 10
CIG100 70 45 34 32 27 23 28 26 29 28 25 23
CoverOVCOVCOVCOVCOVCOVCOVCOVCOVCOVCOVCOVCOVC
FltCatVFRVFRVFRVFRVFRMVFRMVFRMVFRMVFRMVFRMVFRMVFRMVFR
WX--------------------------
WDir20021019018020021025020021017020000
WSpd7 3 3 6 7 5 4 4 3 3 3 0 0
WGst-- -- -- -- -- -- -- -- -- -- -- -- --
Raw hourly METARs
KCLT 172052Z 20007KT 10SM SCT080 BKN100 OVC180 12/M01 A3019 RMK AO2 SLP226 T01171011 55010
KCLT 172152Z 21003KT 10SM BKN070 OVC100 11/01 A3019 RMK AO2 RAB06E44 SLP226 P0000 T01060011
KCLT 172252Z 19003KT 10SM OVC045 11/01 A3020 RMK AO2 SLP228 T01060011
KCLT 172352Z 18006KT 10SM OVC034 11/01 A3019 RMK AO2 SLP226 60000 T01060006 10133 20100 50000
KCLT 180052Z 20007KT 10SM OVC032 11/01 A3021 RMK AO2 SLP231 T01060006
KCLT 180152Z 21005KT 10SM OVC027 11/01 A3020 RMK AO2 SLP227 T01060011
KCLT 180252Z 25004KT 10SM OVC023 11/01 A3020 RMK AO2 SLP227 T01060011 51003
KCLT 180352Z 20004KT 10SM OVC028 10/03 A3018 RMK AO2 SLP221 T01000033
KCLT 180452Z 21003KT 10SM OVC026 10/04 A3018 RMK AO2 SLP221 T01000044 401331028
KCLT 180552Z 17003KT 10SM OVC029 10/05 A3017 RMK AO2 SLP216 T01000050 10106 20100 56009
KCLT 180652Z 20003KT 10SM OVC028 09/06 A3017 RMK AO2 SLP216 T00940056
KCLT 180752Z 00000KT 10SM OVC025 10/05 A3017 RMK AO2 SLP213 T01000050
KCLT 180852Z 00000KT 10SM OVC023 09/05 A3016 RMK AO2 SLP212 T00890050 58004